Time;durP1;ratioP1;P1;durP2;ratioP2;P2;SDS_P1;SDS_P2;PMS_P1;PMS_P2;Temp;Humidity;BMP_temperature;BMP_pressure;BME280_temperature;BME280_humidity;BME280_pressure;Samples;Min_cycle;Max_cycle;Signal;HPM_P1;HPM_P2
2023/06/05 00:00:38;;;;;;;9.40;4.83;;;;;;;10.98;100.00;102167.97;7396023;19;20411;-41
2023/06/05 00:03:07;;;;;;;8.80;3.43;;;;;;;10.77;100.00;102158.09;7367332;19;20441;-42
2023/06/05 00:05:37;;;;;;;11.20;4.27;;;;;;;10.88;100.00;102177.72;7394490;19;20455;-39
2023/06/05 00:08:09;;;;;;;9.17;4.93;;;;;;;10.82;100.00;102174.75;7370948;19;20511;-41
2023/06/05 00:10:39;;;;;;;7.40;3.93;;;;;;;10.75;100.00;102176.06;7396444;19;20826;-39
2023/06/05 00:13:08;;;;;;;11.17;4.30;;;;;;;10.60;100.00;102183.72;7367201;19;20421;-41
2023/06/05 00:15:38;;;;;;;8.13;4.50;;;;;;;10.59;100.00;102207.75;7394693;19;20453;-42
2023/06/05 00:18:08;;;;;;;8.40;4.73;;;;;;;10.48;100.00;102229.38;7366518;19;20433;-43
2023/06/05 00:20:38;;;;;;;10.97;3.90;;;;;;;10.32;100.00;102241.22;7394489;19;20418;-40
2023/06/05 00:23:11;;;;;;;14.00;5.03;;;;;;;10.29;100.00;102265.94;7367701;19;20426;-40
2023/06/05 00:25:40;;;;;;;12.23;4.10;;;;;;;10.25;100.00;102285.44;7392155;19;20446;-37
2023/06/05 00:28:10;;;;;;;10.23;4.57;;;;;;;10.15;100.00;102295.94;7368739;19;20458;-38
2023/06/05 00:30:40;;;;;;;9.97;4.53;;;;;;;9.99;100.00;102306.09;7393781;19;20421;-40
2023/06/05 00:33:10;;;;;;;13.43;4.87;;;;;;;10.10;100.00;102322.31;7367785;19;20475;-41
2023/06/05 00:35:40;;;;;;;12.07;4.10;;;;;;;10.17;100.00;102333.03;7393303;19;20436;-41
2023/06/05 00:38:13;;;;;;;7.80;4.07;;;;;;;10.17;100.00;102333.03;7366437;19;20433;-41
2023/06/05 00:40:42;;;;;;;8.93;4.00;;;;;;;10.09;100.00;102345.41;7395968;19;20409;-42
2023/06/05 00:43:12;;;;;;;6.73;3.93;;;;;;;9.89;100.00;102356.94;7365985;19;20521;-42
2023/06/05 00:45:42;;;;;;;9.97;4.57;;;;;;;10.09;100.00;102359.22;7392760;19;20444;-42
2023/06/05 00:48:12;;;;;;;9.83;4.77;;;;;;;10.21;100.00;102360.84;7367142;19;20443;-43
2023/06/05 00:50:41;;;;;;;10.00;5.03;;;;;;;10.20;100.00;102353.91;7393192;19;20404;-43
2023/06/05 00:53:13;;;;;;;16.53;4.93;;;;;;;10.10;100.00;102367.84;7367039;19;20423;-42
2023/06/05 00:55:43;;;;;;;10.00;4.97;;;;;;;9.82;100.00;102371.06;7393626;19;20989;-38
2023/06/05 00:58:13;;;;;;;14.20;4.20;;;;;;;9.65;100.00;102377.59;7366568;19;20552;-40
2023/06/05 01:00:42;;;;;;;11.77;4.80;;;;;;;9.72;100.00;102383.31;7391865;19;20414;-43
2023/06/05 01:03:12;;;;;;;10.40;5.10;;;;;;;9.86;100.00;102379.09;7366117;19;20428;-40
2023/06/05 01:05:43;;;;;;;10.93;4.97;;;;;;;9.94;100.00;102381.34;7392482;19;20906;-41
2023/06/05 01:08:16;;;;;;;12.23;5.03;;;;;;;9.99;100.00;102374.81;7366284;19;20430;-42
2023/06/05 01:10:46;;;;;;;16.40;4.87;;;;;;;9.77;100.00;102372.41;7393584;19;20496;-41
2023/06/05 01:13:21;;;;;;;12.00;4.90;;;;;;;9.71;100.00;102378.03;7366149;19;20439;-38
2023/06/05 01:15:50;;;;;;;10.73;5.30;;;;;;;9.61;100.00;102391.94;7392989;19;20459;-39
2023/06/05 01:18:22;;;;;;;11.73;5.67;;;;;;;9.61;100.00;102406.50;7366298;19;20495;-40
2023/06/05 01:20:51;;;;;;;12.33;5.60;;;;;;;9.40;100.00;102428.25;7393509;19;20418;-40
2023/06/05 01:23:25;;;;;;;10.80;5.00;;;;;;;9.36;100.00;102461.38;7366219;19;20419;-39
2023/06/05 01:25:56;;;;;;;12.17;5.07;;;;;;;9.24;100.00;102454.56;7392373;19;20458;-40
2023/06/05 01:28:28;;;;;;;11.83;5.13;;;;;;;9.40;100.00;102440.22;7366419;19;20448;-44
2023/06/05 01:31:03;;;;;;;12.37;5.60;;;;;;;9.53;100.00;102414.56;7393634;19;20416;-41
2023/06/05 01:33:41;;;;;;;12.40;4.53;;;;;;;9.41;100.00;102398.22;7364601;19;20447;-42
2023/06/05 01:36:13;;;;;;;15.47;5.87;;;;;;;9.51;100.00;102390.38;7391682;19;20864;-43
2023/06/05 01:38:46;;;;;;;10.93;4.70;;;;;;;9.49;100.00;102379.06;7366620;19;21172;-40
2023/06/05 01:41:16;;;;;;;12.40;5.80;;;;;;;9.30;100.00;102385.47;7390615;19;20471;-44
2023/06/05 01:43:47;;;;;;;12.57;5.10;;;;;;;9.42;100.00;102363.94;7365887;19;20514;-40
2023/06/05 01:46:22;;;;;;;11.60;5.53;;;;;;;9.35;100.00;102354.91;7391219;19;20483;-40
2023/06/05 01:48:54;;;;;;;9.37;4.97;;;;;;;9.40;100.00;102338.09;7366129;19;20455;-41
2023/06/05 01:51:24;;;;;;;11.93;5.00;;;;;;;9.18;100.00;102338.22;7391290;19;20408;-42
2023/06/05 01:53:57;;;;;;;7.33;4.90;;;;;;;9.13;100.00;102321.53;7365674;19;20544;-40
2023/06/05 01:56:29;;;;;;;13.07;4.60;;;;;;;9.14;100.00;102295.00;7391555;19;21007;-41
2023/06/05 01:58:58;;;;;;;14.43;6.90;;;;;;;9.26;100.00;102259.81;7366143;19;20434;-41
2023/06/05 02:01:28;;;;;;;8.40;5.23;;;;;;;9.34;100.00;102226.88;7390853;19;20416;-40
2023/06/05 02:03:58;;;;;;;12.17;5.13;;;;;;;9.14;100.00;102221.19;7364133;19;20976;-42
2023/06/05 02:06:28;;;;;;;12.50;5.27;;;;;;;9.08;100.00;102219.88;7391376;19;20419;-42
2023/06/05 02:09:02;;;;;;;17.60;5.13;;;;;;;8.99;100.00;102207.25;7365522;19;20515;-42
2023/06/05 02:11:31;;;;;;;8.23;5.30;;;;;;;9.02;100.00;102194.56;7392838;19;20411;-40
2023/06/05 02:14:02;;;;;;;12.23;4.70;;;;;;;8.84;100.00;102183.88;7373768;19;20774;-41
2023/06/05 02:16:31;;;;;;;17.40;5.77;;;;;;;8.76;100.00;102173.94;7396960;19;20403;-40
2023/06/05 02:19:03;;;;;;;8.90;5.37;;;;;;;8.66;100.00;102156.03;7372459;19;20845;-42
2023/06/05 02:21:35;;;;;;;15.63;6.23;;;;;;;8.62;100.00;102144.63;7397651;19;20463;-42
2023/06/05 02:24:07;;;;;;;9.13;5.47;;;;;;;8.57;100.00;102138.25;7373072;19;20427;-41
2023/06/05 02:26:37;;;;;;;10.20;5.33;;;;;;;8.62;100.00;102129.19;7397226;19;20411;-41
2023/06/05 02:29:07;;;;;;;13.27;5.60;;;;;;;8.68;100.00;102123.59;7373801;19;20437;-41
2023/06/05 02:31:37;;;;;;;21.23;6.57;;;;;;;8.72;100.00;102107.56;7397009;19;20411;-42
2023/06/05 02:34:07;;;;;;;13.43;6.60;;;;;;;8.56;100.00;102097.88;7372396;19;20439;-42
2023/06/05 02:36:37;;;;;;;12.20;6.23;;;;;;;8.56;100.00;102079.88;7397206;19;20759;-41
2023/06/05 02:39:09;;;;;;;13.77;6.40;;;;;;;8.68;100.00;102067.00;7373103;19;20869;-43
2023/06/05 02:41:39;;;;;;;12.73;5.57;;;;;;;8.63;100.00;102066.66;7397124;19;20400;-43
2023/06/05 02:44:09;;;;;;;15.00;6.50;;;;;;;8.50;100.00;102053.66;7374291;19;21241;-38
2023/06/05 02:46:39;;;;;;;12.43;6.73;;;;;;;8.50;100.00;102049.44;7400174;19;20418;-41
2023/06/05 02:49:08;;;;;;;15.27;7.80;;;;;;;8.48;100.00;102045.88;7373364;19;20440;-41
2023/06/05 02:51:38;;;;;;;19.40;7.50;;;;;;;8.41;100.00;102035.03;7397760;19;20407;-41
2023/06/05 02:54:10;;;;;;;13.93;6.70;;;;;;;8.48;100.00;102037.25;7371939;19;20518;-41
2023/06/05 02:56:40;;;;;;;14.53;7.43;;;;;;;8.45;100.00;102032.78;7397581;19;20421;-43
2023/06/05 02:59:10;;;;;;;13.80;7.30;;;;;;;8.62;100.00;102025.41;7375083;19;20490;-39
2023/06/05 03:01:43;;;;;;;16.70;7.57;;;;;;;8.60;100.00;102011.50;7397031;19;20938;-40
2023/06/05 03:04:13;;;;;;;14.73;6.80;;;;;;;8.64;100.00;102005.81;7374505;19;20459;-43
2023/06/05 03:06:44;;;;;;;14.20;7.13;;;;;;;8.59;100.00;101987.47;7397319;19;20414;-41
2023/06/05 03:09:16;;;;;;;13.00;7.13;;;;;;;8.50;100.00;101979.97;7374776;19;21095;-42
2023/06/05 03:11:46;;;;;;;15.50;7.10;;;;;;;8.47;100.00;101978.88;7376251;19;20404;-41
2023/06/05 03:14:16;;;;;;;13.33;6.73;;;;;;;8.39;100.00;101975.75;7394005;19;20418;-42
2023/06/05 03:16:45;;;;;;;12.33;6.63;;;;;;;8.51;100.00;101961.22;7376580;19;20418;-40
2023/06/05 03:19:16;;;;;;;15.10;8.00;;;;;;;8.69;100.00;101970.09;7396550;19;20403;-41
2023/06/05 03:21:47;;;;;;;17.37;7.40;;;;;;;8.74;100.00;101963.59;7379518;19;20420;-43
2023/06/05 03:24:20;;;;;;;20.63;8.10;;;;;;;8.56;100.00;101953.81;7392849;19;20412;-44
2023/06/05 03:26:50;;;;;;;17.90;7.23;;;;;;;8.50;100.00;101958.50;7373604;19;20796;-40
2023/06/05 03:29:20;;;;;;;17.70;7.40;;;;;;;8.42;100.00;101955.41;7391069;19;20410;-42
2023/06/05 03:31:49;;;;;;;14.07;7.47;;;;;;;8.30;100.00;101967.41;7368312;19;20383;-40
2023/06/05 03:34:19;;;;;;;14.17;7.10;;;;;;;8.39;100.00;101960.31;7394756;19;20445;-42
2023/06/05 03:36:49;;;;;;;24.33;11.33;;;;;;;8.50;100.00;101953.34;7369658;19;20383;-42
2023/06/05 03:39:21;;;;;;;20.10;10.37;;;;;;;9.01;100.00;101951.69;7392956;19;20824;-42
2023/06/05 03:41:51;;;;;;;35.80;18.93;;;;;;;9.01;100.00;101938.84;7367417;19;20886;-41
2023/06/05 03:44:20;;;;;;;43.00;22.70;;;;;;;9.00;100.00;101931.91;7389975;19;20455;-39
2023/06/05 03:46:50;;;;;;;23.37;10.80;;;;;;;9.22;100.00;101924.72;7368807;19;20463;-38
2023/06/05 03:49:20;;;;;;;24.37;12.53;;;;;;;9.33;100.00;101931.44;7390316;19;20391;-39
2023/06/05 03:51:50;;;;;;;24.30;10.93;;;;;;;9.15;100.00;101923.41;7368318;19;20455;-42
2023/06/05 03:54:25;;;;;;;34.80;18.43;;;;;;;8.99;100.00;101930.13;7391912;19;20404;-41
2023/06/05 03:56:55;;;;;;;21.90;13.00;;;;;;;9.12;100.00;101931.81;7367289;19;20398;-43
2023/06/05 03:59:27;;;;;;;29.43;15.10;;;;;;;9.04;100.00;101943.28;7390051;19;20412;-41
2023/06/05 04:01:58;;;;;;;33.23;17.83;;;;;;;8.97;100.00;101944.56;7368910;19;20916;-38
2023/06/05 04:04:27;;;;;;;47.83;27.67;;;;;;;9.18;100.00;101939.06;7390185;19;20411;-41
2023/06/05 04:06:57;;;;;;;23.03;11.60;;;;;;;9.48;100.00;101941.00;7367966;19;20416;-45
2023/06/05 04:09:30;;;;;;;20.13;11.13;;;;;;;9.59;100.00;101934.84;7390071;19;20770;-41
2023/06/05 04:12:00;;;;;;;20.83;10.47;;;;;;;9.71;100.00;101939.88;7368958;19;20404;-41
2023/06/05 04:14:29;;;;;;;14.70;8.30;;;;;;;9.67;100.00;101943.06;7393554;19;20436;-41
2023/06/05 04:16:59;;;;;;;19.00;7.90;;;;;;;9.62;100.00;101950.50;7367075;19;20406;-43
2023/06/05 04:19:30;;;;;;;21.00;9.57;;;;;;;9.72;100.00;101962.28;7389545;19;20412;-41
2023/06/05 04:22:00;;;;;;;19.60;8.83;;;;;;;9.99;100.00;101963.16;7368614;19;20452;-43
2023/06/05 04:24:32;;;;;;;15.17;8.50;;;;;;;10.08;100.00;101964.53;7389876;19;20498;-45
2023/06/05 04:27:02;;;;;;;15.67;8.10;;;;;;;10.05;100.00;101978.13;7367427;19;20957;-41
2023/06/05 04:29:32;;;;;;;21.47;10.50;;;;;;;10.22;100.00;101983.47;7389789;19;20940;-38
2023/06/05 04:32:02;;;;;;;36.30;19.73;;;;;;;10.43;100.00;101990.78;7367981;19;20464;-42
2023/06/05 04:34:32;;;;;;;22.00;10.87;;;;;;;10.35;100.00;102004.06;7389479;19;20408;-41
2023/06/05 04:37:01;;;;;;;20.87;9.90;;;;;;;10.29;100.00;102020.88;7366723;19;21199;-42
2023/06/05 04:39:33;;;;;;;19.70;8.10;;;;;;;10.40;100.00;102025.00;7391049;19;20411;-41
2023/06/05 04:42:03;;;;;;;19.70;10.50;;;;;;;10.45;100.00;102030.50;7365344;19;20457;-40
2023/06/05 04:44:43;;;;;;;26.00;15.07;;;;;;;10.51;100.00;102042.06;7389405;19;20430;-43
2023/06/05 04:47:13;;;;;;;29.90;16.27;;;;;;;10.61;100.00;102061.59;7368712;19;20420;-37
2023/06/05 04:49:43;;;;;;;20.83;10.93;;;;;;;10.65;100.00;102079.06;7390506;19;20396;-42
2023/06/05 04:52:14;;;;;;;17.70;10.03;;;;;;;10.31;100.00;102097.53;7366021;19;20421;-39
2023/06/05 04:54:46;;;;;;;18.93;10.20;;;;;;;10.25;100.00;102100.63;7390142;19;20445;-42
2023/06/05 04:57:16;;;;;;;26.37;11.27;;;;;;;10.19;100.00;102109.63;7366592;19;20407;-40
2023/06/05 04:59:46;;;;;;;21.43;9.90;;;;;;;10.15;100.00;102107.66;7389420;19;20806;-42
2023/06/05 05:02:15;;;;;;;33.10;13.10;;;;;;;10.18;100.00;102113.91;7365707;19;20394;-42
2023/06/05 05:04:45;;;;;;;18.97;8.73;;;;;;;10.15;100.00;102105.97;7390141;19;20496;-40
2023/06/05 05:07:16;;;;;;;17.17;9.30;;;;;;;10.15;100.00;102105.09;7366743;19;20459;-42
2023/06/05 05:09:48;;;;;;;33.70;17.27;;;;;;;10.11;100.00;102101.41;7388566;19;20466;-39
2023/06/05 05:12:18;;;;;;;22.50;9.37;;;;;;;10.07;100.00;102104.59;7365110;19;20392;-40
2023/06/05 05:14:48;;;;;;;23.23;10.00;;;;;;;10.11;100.00;102096.25;7389262;19;20430;-38
2023/06/05 05:17:19;;;;;;;17.63;9.20;;;;;;;10.08;100.00;102081.47;7365534;19;20532;-39
2023/06/05 05:19:49;;;;;;;21.80;10.13;;;;;;;10.13;100.00;102077.53;7389316;19;20413;-42
2023/06/05 05:22:19;;;;;;;18.00;8.87;;;;;;;10.18;100.00;102076.91;7364095;19;20405;-41
2023/06/05 05:24:52;;;;;;;17.97;8.83;;;;;;;10.28;100.00;102079.28;7388332;19;20798;-41
2023/06/05 05:27:22;;;;;;;20.97;8.70;;;;;;;10.38;100.00;102076.53;7365921;19;20420;-41
2023/06/05 05:29:51;;;;;;;15.30;8.67;;;;;;;10.42;100.00;102081.84;7390354;19;20782;-43
2023/06/05 05:32:21;;;;;;;20.53;9.20;;;;;;;10.45;100.00;102072.66;7360441;19;21001;-43
2023/06/05 05:34:51;;;;;;;20.87;9.47;;;;;;;10.57;100.00;102071.66;7388287;19;20430;-41
2023/06/05 05:37:22;;;;;;;18.07;8.53;;;;;;;10.67;100.00;102069.72;7365290;19;21359;-42
2023/06/05 05:39:54;;;;;;;21.30;8.97;;;;;;;10.69;100.00;102066.34;7388440;19;20399;-42
2023/06/05 05:42:24;;;;;;;21.43;9.03;;;;;;;10.72;100.00;102070.00;7364953;19;20420;-42
2023/06/05 05:44:53;;;;;;;23.60;9.87;;;;;;;10.83;100.00;102069.78;7387742;19;20508;-40
2023/06/05 05:47:23;;;;;;;23.27;9.60;;;;;;;11.00;100.00;102065.66;7369205;19;21041;-42
2023/06/05 05:49:56;;;;;;;16.13;8.13;;;;;;;11.06;100.00;102064.34;7394169;19;20399;-41
2023/06/05 05:52:26;;;;;;;13.47;8.23;;;;;;;11.18;100.00;102068.47;7371133;19;21213;-41
2023/06/05 05:54:58;;;;;;;20.10;8.43;;;;;;;11.36;100.00;102076.44;7394009;19;20438;-41
2023/06/05 05:57:28;;;;;;;29.73;12.43;;;;;;;11.53;100.00;102086.88;7371468;19;20819;-39
2023/06/05 05:59:58;;;;;;;12.00;7.73;;;;;;;11.46;100.00;102086.53;7394363;19;20391;-42
2023/06/05 06:02:28;;;;;;;14.17;7.33;;;;;;;11.48;100.00;102095.25;7373008;19;20402;-44
2023/06/05 06:04:58;;;;;;;13.97;7.10;;;;;;;11.54;100.00;102099.00;7395079;19;20962;-40
2023/06/05 06:07:27;;;;;;;14.00;7.17;;;;;;;11.69;100.00;102099.91;7370952;19;20494;-40
2023/06/05 06:10:00;;;;;;;16.23;8.90;;;;;;;11.79;100.00;102110.78;7393999;19;20821;-40
2023/06/05 06:12:30;;;;;;;14.10;6.80;;;;;;;11.81;100.00;102104.00;7369615;19;20473;-44
2023/06/05 06:14:59;;;;;;;14.60;7.40;;;;;;;11.94;100.00;102122.00;7397321;19;20548;-43
2023/06/05 06:17:29;;;;;;;16.60;7.30;;;;;;;12.01;100.00;102118.09;7370864;19;20423;-41
2023/06/05 06:19:59;;;;;;;15.70;6.03;;;;;;;12.10;100.00;102122.94;7394260;19;20399;-44
2023/06/05 06:22:29;;;;;;;13.30;7.40;;;;;;;12.13;100.00;102133.47;7368454;19;20460;-39
2023/06/05 06:25:01;;;;;;;15.57;7.10;;;;;;;12.25;100.00;102139.34;7393519;19;20432;-43
2023/06/05 06:27:30;;;;;;;11.93;6.97;;;;;;;12.37;100.00;102146.00;7370248;19;20397;-39
2023/06/05 06:30:05;;;;;;;17.07;6.80;;;;;;;12.49;100.00;102153.56;7396460;19;20427;-41
2023/06/05 06:32:35;;;;;;;18.83;6.93;;;;;;;12.58;100.00;102160.97;7371108;19;20455;-41
2023/06/05 06:35:06;;;;;;;12.17;6.20;;;;;;;12.72;100.00;102172.97;7393186;19;20425;-43
2023/06/05 06:37:36;;;;;;;14.10;6.07;;;;;;;12.77;100.00;102181.03;7371161;19;20416;-43
2023/06/05 06:40:11;;;;;;;12.20;6.20;;;;;;;12.81;100.00;102198.50;7393111;19;20399;-42
2023/06/05 06:42:40;;;;;;;17.50;6.70;;;;;;;12.92;100.00;102212.06;7369923;19;20402;-42
2023/06/05 06:45:11;;;;;;;13.80;6.60;;;;;;;12.99;100.00;102228.81;7392571;19;20425;-42
2023/06/05 06:47:41;;;;;;;13.07;6.00;;;;;;;13.06;100.00;102241.28;7370178;19;20430;-41
2023/06/05 06:50:16;;;;;;;16.47;5.70;;;;;;;13.21;100.00;102264.56;7393151;19;20394;-43
2023/06/05 06:52:46;;;;;;;12.03;5.80;;;;;;;13.34;100.00;102282.56;7369540;19;20866;-43
2023/06/05 06:55:18;;;;;;;18.97;6.43;;;;;;;13.48;100.00;102308.41;7394483;19;20445;-42
2023/06/05 06:57:48;;;;;;;13.23;5.27;;;;;;;13.54;100.00;102328.59;7366452;19;20407;-41
2023/06/05 07:00:20;;;;;;;8.20;5.37;;;;;;;13.63;100.00;102371.47;7393368;19;20460;-41
2023/06/05 07:02:49;;;;;;;11.77;5.97;;;;;;;13.73;100.00;102404.00;7368901;19;20426;-41
2023/06/05 07:05:20;;;;;;;13.73;5.47;;;;;;;13.79;100.00;102429.38;7392509;19;20482;-42
2023/06/05 07:07:50;;;;;;;9.27;5.37;;;;;;;13.82;100.00;102465.88;7369462;19;20395;-44
2023/06/05 07:10:22;;;;;;;8.33;4.70;;;;;;;13.96;100.00;102473.53;7392938;19;20389;-39
2023/06/05 07:12:51;;;;;;;12.23;4.90;;;;;;;14.03;100.00;102486.03;7368559;19;20886;-42
2023/06/05 07:15:21;;;;;;;10.00;4.47;;;;;;;14.16;100.00;102509.25;7392884;19;20417;-42
2023/06/05 07:17:50;;;;;;;13.90;5.33;;;;;;;14.31;100.00;102519.56;7369207;19;20403;-39
2023/06/05 07:20:20;;;;;;;9.37;4.70;;;;;;;14.45;100.00;102538.50;7391857;19;20405;-43
2023/06/05 07:22:50;;;;;;;10.17;4.27;;;;;;;14.58;100.00;102542.66;7370159;19;20816;-41
2023/06/05 07:25:24;;;;;;;9.10;4.03;;;;;;;14.68;100.00;102544.03;7393601;19;20435;-42
2023/06/05 07:27:54;;;;;;;10.80;5.17;;;;;;;14.70;100.00;102547.63;7368117;19;20778;-44
2023/06/05 07:30:24;;;;;;;11.00;4.60;;;;;;;14.77;100.00;102532.41;7391291;19;20406;-41
2023/06/05 07:32:53;;;;;;;20.77;7.80;;;;;;;14.88;100.00;102513.06;7371519;19;20403;-41
2023/06/05 07:35:24;;;;;;;6.60;4.10;;;;;;;15.03;100.00;102502.53;7396247;19;20464;-44
2023/06/05 07:37:54;;;;;;;14.63;5.70;;;;;;;15.09;100.00;102487.25;7371803;19;22271;-42
2023/06/05 07:40:26;;;;;;;7.60;3.60;;;;;;;15.25;100.00;102462.06;7393741;19;20484;-43
2023/06/05 07:42:56;;;;;;;10.13;4.77;;;;;;;15.31;100.00;102412.03;7367676;19;20427;-40
2023/06/05 07:45:25;;;;;;;11.43;5.80;;;;;;;15.40;100.00;102378.69;7395741;19;20440;-42
2023/06/05 07:47:55;;;;;;;11.13;4.70;;;;;;;15.46;100.00;102350.38;7369677;19;20426;-40
2023/06/05 07:50:25;;;;;;;8.57;4.00;;;;;;;15.52;100.00;102326.34;7394681;19;20422;-41
2023/06/05 07:52:55;;;;;;;8.17;4.10;;;;;;;15.53;100.00;102284.81;7369028;19;20435;-40
2023/06/05 07:55:27;;;;;;;10.77;3.97;;;;;;;15.71;100.00;102239.66;7394497;19;20454;-42
2023/06/05 07:57:59;;;;;;;9.27;3.30;;;;;;;15.82;100.00;102179.34;7370915;19;20879;-41
2023/06/05 08:00:29;;;;;;;7.67;4.10;;;;;;;15.89;100.00;102160.59;7395466;19;20419;-42
2023/06/05 08:03:00;;;;;;;11.03;4.00;;;;;;;15.84;100.00;102123.09;7369041;19;20420;-43
2023/06/05 08:05:29;;;;;;;9.67;3.57;;;;;;;16.00;100.00;102141.13;7395314;19;20472;-43
2023/06/05 08:07:59;;;;;;;13.73;3.90;;;;;;;16.10;100.00;102108.53;7370325;19;20516;-44
2023/06/05 08:10:31;;;;;;;6.90;3.90;;;;;;;16.21;100.00;102051.72;7393423;19;20488;-40
2023/06/05 08:13:01;;;;;;;10.83;4.73;;;;;;;16.27;100.00;102012.91;7362673;19;20427;-43
2023/06/05 08:15:31;;;;;;;28.27;4.93;;;;;;;16.35;100.00;101988.88;7395273;19;20449;-42
2023/06/05 08:18:01;;;;;;;11.00;3.80;;;;;;;16.39;100.00;101962.09;7367517;19;20433;-39
2023/06/05 08:20:30;;;;;;;9.37;3.90;;;;;;;16.49;100.00;101935.56;7395445;19;20407;-42
2023/06/05 08:23:01;;;;;;;14.13;7.00;;;;;;;16.60;100.00;101907.28;7367586;19;20420;-44
2023/06/05 08:25:33;;;;;;;16.23;8.33;;;;;;;16.42;100.00;101877.13;7394121;19;20528;-44
2023/06/05 08:28:03;;;;;;;8.17;3.73;;;;;;;16.55;100.00;101875.88;7365092;19;20434;-43
2023/06/05 08:30:33;;;;;;;7.50;4.27;;;;;;;16.64;100.00;101836.22;7394022;19;20419;-40
2023/06/05 08:33:02;;;;;;;7.00;3.77;;;;;;;16.79;100.00;101811.50;7365118;19;20438;-43
2023/06/05 08:35:32;;;;;;;17.17;6.90;;;;;;;16.82;100.00;101789.03;7394264;19;20522;-43
2023/06/05 08:38:02;;;;;;;10.87;3.73;;;;;;;16.90;100.00;101796.22;7368435;19;20422;-41
2023/06/05 08:40:36;;;;;;;6.27;3.47;;;;;;;17.00;100.00;101767.00;7395002;19;20421;-41
2023/06/05 08:43:06;;;;;;;7.93;3.20;;;;;;;17.23;100.00;101766.88;7359705;19;20451;-41
2023/06/05 08:45:36;;;;;;;8.17;3.13;;;;;;;17.35;100.00;101732.44;7392573;19;20475;-43
2023/06/05 08:48:08;;;;;;;10.73;4.50;;;;;;;17.49;100.00;101696.31;7363398;19;20430;-44
2023/06/05 08:50:40;;;;;;;10.00;3.57;;;;;;;17.68;100.00;101685.56;7392727;19;21014;-43
2023/06/05 08:53:12;;;;;;;8.77;3.17;;;;;;;17.79;100.00;101671.91;7365129;19;20442;-42
2023/06/05 08:55:46;;;;;;;6.17;2.70;;;;;;;17.73;100.00;101599.53;7393235;19;20451;-41
2023/06/05 08:58:16;;;;;;;6.60;3.10;;;;;;;17.89;100.00;101585.16;7366134;19;20448;-43
2023/06/05 09:00:48;;;;;;;6.63;2.83;;;;;;;18.05;100.00;101559.44;7393214;19;20411;-41
2023/06/05 09:03:20;;;;;;;9.23;3.13;;;;;;;18.05;100.00;101522.88;7365884;19;20471;-43
2023/06/05 09:05:50;;;;;;;6.40;2.80;;;;;;;18.19;100.00;101505.81;7394098;19;20511;-39
2023/06/05 09:08:23;;;;;;;10.20;3.40;;;;;;;17.89;100.00;101491.19;7368613;19;20884;-43
2023/06/05 09:10:55;;;;;;;5.33;2.80;;;;;;;17.75;100.00;101503.03;7393331;19;20411;-43
2023/06/05 09:13:25;;;;;;;8.70;2.97;;;;;;;17.88;100.00;101472.88;7365078;19;20552;-44
2023/06/05 09:15:55;;;;;;;8.33;3.00;;;;;;;18.22;100.00;101473.69;7393281;19;20484;-43
2023/06/05 09:18:25;;;;;;;6.80;2.60;;;;;;;18.43;100.00;101456.69;7366343;19;20430;-41
2023/06/05 09:20:55;;;;;;;8.60;4.80;;;;;;;18.56;100.00;101452.59;7391018;19;20467;-42
2023/06/05 09:23:26;;;;;;;10.93;4.30;;;;;;;18.70;100.00;101439.78;7365900;19;20435;-42
2023/06/05 09:26:03;;;;;;;7.40;3.13;;;;;;;18.93;100.00;101447.16;7393817;19;20451;-43
2023/06/05 09:28:33;;;;;;;9.00;3.47;;;;;;;18.94;100.00;101428.91;7368117;19;20415;-44
2023/06/05 09:31:04;;;;;;;6.07;2.50;;;;;;;18.91;100.00;101421.00;7392215;19;20699;-43
2023/06/05 09:33:37;;;;;;;6.37;2.60;;;;;;;18.98;100.00;101416.78;7363555;19;21142;-42
2023/06/05 09:36:08;;;;;;;14.10;6.50;;;;;;;19.06;100.00;101415.19;7386886;19;20454;-43
2023/06/05 09:38:40;;;;;;;9.03;4.40;;;;;;;19.20;100.00;101417.16;7360332;19;20447;-43
2023/06/05 09:41:14;;;;;;;8.07;4.57;;;;;;;19.23;100.00;101425.06;7388621;19;20418;-39
2023/06/05 09:43:43;;;;;;;9.90;3.80;;;;;;;19.31;100.00;101441.75;7364570;19;20421;-41
2023/06/05 09:46:14;;;;;;;6.17;2.70;;;;;;;19.29;100.00;101428.63;7389725;19;20533;-42
2023/06/05 09:48:46;;;;;;;8.30;3.37;;;;;;;19.45;100.00;101420.16;7365516;19;20522;-44
2023/06/05 09:51:18;;;;;;;7.70;3.00;;;;;;;19.55;100.00;101416.84;7392972;19;20920;-44
2023/06/05 09:53:48;;;;;;;10.00;2.87;;;;;;;19.77;100.00;101427.59;7364687;19;20777;-43
2023/06/05 09:56:23;;;;;;;7.80;2.67;;;;;;;19.87;100.00;101455.69;7390408;19;20872;-43
2023/06/05 09:58:54;;;;;;;4.70;2.57;;;;;;;19.77;100.00;101475.63;7366305;19;20430;-42
2023/06/05 10:01:27;;;;;;;8.17;2.90;;;;;;;19.90;100.00;101475.81;7392126;19;21215;-41
2023/06/05 10:04:00;;;;;;;8.37;3.77;;;;;;;19.72;100.00;101507.78;7365768;19;20419;-43
2023/06/05 10:06:31;;;;;;;8.50;3.30;;;;;;;19.84;100.00;101502.75;7385832;19;20445;-40
2023/06/05 10:09:03;;;;;;;36.83;24.13;;;;;;;20.14;100.00;101496.25;7366602;19;20510;-44
2023/06/05 10:11:36;;;;;;;15.70;7.27;;;;;;;20.33;100.00;101528.81;7391667;19;20417;-44
2023/06/05 10:14:07;;;;;;;12.13;3.70;;;;;;;20.26;100.00;101576.75;7365492;19;20514;-44
2023/06/05 10:16:36;;;;;;;7.00;3.40;;;;;;;20.51;100.00;101571.84;7389468;19;20443;-43
2023/06/05 10:19:06;;;;;;;7.70;4.00;;;;;;;20.63;100.00;101600.81;7366026;19;20462;-43
2023/06/05 10:21:42;;;;;;;7.67;4.07;;;;;;;20.55;100.00;101673.25;7388510;19;20772;-43
2023/06/05 10:24:15;;;;;;;7.10;2.53;;;;;;;20.72;100.00;101670.84;7364740;19;20966;-43
2023/06/05 10:27:14;;;;;;;4.07;2.20;;;;;;;20.66;100.00;101703.97;7375781;19;20416;-43
2023/06/05 10:30:04;;;;;;;6.60;2.53;;;;;;;20.93;100.00;101710.50;7391854;19;20423;-44
2023/06/05 10:32:39;;;;;;;9.53;4.63;;;;;;;20.81;100.00;101705.94;7365535;19;20395;-43
2023/06/05 10:35:16;;;;;;;10.97;3.07;;;;;;;20.78;100.00;101664.84;7396344;19;20455;-43
2023/06/05 10:37:54;;;;;;;7.47;3.90;;;;;;;20.74;100.00;101775.75;7371758;19;20490;-43
2023/06/05 10:40:25;;;;;;;4.70;2.43;;;;;;;20.84;100.00;101801.31;7396387;19;20495;-44
2023/06/05 10:42:57;;;;;;;11.83;6.03;;;;;;;20.83;100.00;101793.38;7371734;19;21019;-42
2023/06/05 10:45:33;;;;;;;13.23;4.93;;;;;;;20.93;100.00;101794.44;7396950;19;20443;-44
2023/06/05 10:48:03;;;;;;;11.23;5.53;;;;;;;20.94;100.00;101772.59;7370898;19;20479;-45
2023/06/05 10:50:33;;;;;;;6.50;2.50;;;;;;;21.04;100.00;101798.97;7396924;19;20944;-42
2023/06/05 10:53:03;;;;;;;5.37;2.20;;;;;;;21.29;100.00;101790.59;7371149;19;20432;-42
2023/06/05 10:55:46;;;;;;;8.20;2.80;;;;;;;21.43;100.00;101836.25;7395600;19;21337;-42
2023/06/05 10:58:22;;;;;;;9.50;3.87;;;;;;;21.62;100.00;101830.34;7370610;19;20491;-42
2023/06/05 11:01:19;;;;;;;20.17;8.73;;;;;;;21.55;100.00;101848.69;7396155;19;20443;-42
2023/06/05 11:04:00;;;;;;;6.10;3.00;;;;;;;21.68;100.00;101830.44;7370547;19;20514;-42
2023/06/05 11:06:30;;;;;;;8.93;2.20;;;;;;;21.76;100.00;101835.81;7396076;19;20455;-42
2023/06/05 11:09:13;;;;;;;5.83;2.43;;;;;;;21.64;100.00;101850.53;7371325;19;20426;-40
2023/06/05 11:12:02;;;;;;;7.30;3.40;;;;;;;21.92;100.00;101853.53;7396875;19;20755;-43
2023/06/05 11:14:49;;;;;;;5.93;2.30;;;;;;;22.11;100.00;101853.75;7374452;19;20472;-43
2023/06/05 11:17:31;;;;;;;10.33;5.33;;;;;;;21.76;100.00;101857.72;7369798;19;20391;-43
2023/06/05 11:20:05;;;;;;;7.07;3.20;;;;;;;21.56;100.00;101849.53;7398319;19;20417;-43
2023/06/05 11:22:35;;;;;;;9.07;5.10;;;;;;;21.08;100.00;101835.75;7369252;19;20395;-44
2023/06/05 11:25:30;;;;;;;18.47;10.10;;;;;;;21.49;100.00;101850.34;7392997;19;20514;-44
2023/06/05 11:28:02;;;;;;;9.50;5.17;;;;;;;21.64;100.00;101847.03;7370547;19;20423;-42
2023/06/05 11:30:36;;;;;;;38.03;20.40;;;;;;;21.52;100.00;101850.34;7397542;19;20403;-46
2023/06/05 11:33:16;;;;;;;44.87;24.23;;;;;;;21.74;100.00;101851.56;7368681;19;20468;-41